createdAt,value
2022-09-27T00:01:23.972Z,3.40
2022-09-27T00:03:55.157Z,3.30
2022-09-27T00:06:26.429Z,3.30
2022-09-27T00:08:53.199Z,3.40
2022-09-27T00:11:22.495Z,3.40
2022-09-27T00:13:48.956Z,2.60
2022-09-27T00:16:15.626Z,2.77
2022-09-27T00:18:42.441Z,2.50
2022-09-27T00:21:12.399Z,2.70
2022-09-27T00:23:39.484Z,3.97
2022-09-27T00:26:08.173Z,2.33
2022-09-27T00:28:35.105Z,3.37
2022-09-27T00:31:02.011Z,3.00
2022-09-27T00:33:28.624Z,3.37
2022-09-27T00:35:55.325Z,3.47
2022-09-27T00:38:21.904Z,3.10
2022-09-27T00:40:48.643Z,3.40
2022-09-27T00:43:21.406Z,3.37
2022-09-27T00:45:52.921Z,3.13
2022-09-27T00:48:24.910Z,3.10
2022-09-27T00:50:56.772Z,3.50
2022-09-27T00:53:26.896Z,3.50
2022-09-27T00:55:57.135Z,3.60
2022-09-27T00:58:46.535Z,4.10
2022-09-27T01:01:16.063Z,4.27
2022-09-27T01:03:51.560Z,3.60
2022-09-27T01:06:20.683Z,4.47
2022-09-27T01:08:47.185Z,4.57
2022-09-27T01:11:16.959Z,5.07
2022-09-27T01:14:09.512Z,4.70
2022-09-27T01:16:47.363Z,5.07
2022-09-27T01:19:28.860Z,4.93
2022-09-27T01:22:09.662Z,4.90
2022-09-27T01:24:48.200Z,5.03
2022-09-27T01:27:29.906Z,4.07
2022-09-27T01:30:18.168Z,4.77
2022-09-27T01:33:14.584Z,4.40
2022-09-27T01:36:14.399Z,3.73
2022-09-27T01:39:04.115Z,3.90
2022-09-27T01:41:30.579Z,3.70
2022-09-27T01:44:06.756Z,3.57
2022-09-27T01:46:36.371Z,3.67
2022-09-27T01:49:10.909Z,4.00
2022-09-27T01:51:45.953Z,3.53
2022-09-27T01:54:19.006Z,3.77
2022-09-27T01:56:52.522Z,3.80
2022-09-27T01:59:37.355Z,3.30
2022-09-27T02:02:08.984Z,3.70
2022-09-27T02:04:39.555Z,3.87
2022-09-27T02:07:22.710Z,3.53
2022-09-27T02:09:56.627Z,4.50
2022-09-27T02:12:28.549Z,3.90
2022-09-27T02:15:09.855Z,3.80
2022-09-27T02:17:46.241Z,3.80
2022-09-27T02:20:26.164Z,4.77
2022-09-27T02:23:04.186Z,4.30
2022-09-27T02:26:12.093Z,4.17
2022-09-27T02:28:50.143Z,4.50
2022-09-27T02:31:16.809Z,4.37
2022-09-27T02:33:55.404Z,4.20
2022-09-27T02:36:22.681Z,4.43
2022-09-27T02:38:49.596Z,4.27
2022-09-27T02:41:18.299Z,3.90
2022-09-27T02:43:47.180Z,4.17
2022-09-27T02:46:23.511Z,3.33
2022-09-27T02:49:21.051Z,4.13
2022-09-27T02:52:09.379Z,3.93
2022-09-27T02:54:52.260Z,4.07
2022-09-27T02:58:01.464Z,4.20
2022-09-27T03:00:42.190Z,4.10
2022-09-27T03:03:19.231Z,3.83
2022-09-27T03:05:51.918Z,4.23
2022-09-27T03:08:19.018Z,4.57
2022-09-27T03:10:45.532Z,4.00
2022-09-27T03:13:12.655Z,4.50
2022-09-27T03:15:39.122Z,4.00
2022-09-27T03:18:05.825Z,3.93
2022-09-27T03:20:32.444Z,5.07
2022-09-27T03:22:58.921Z,4.00
2022-09-27T03:25:25.696Z,4.37
2022-09-27T03:27:52.151Z,4.10
2022-09-27T03:30:18.820Z,3.60
2022-09-27T03:32:45.819Z,4.20
2022-09-27T03:35:13.166Z,3.87
2022-09-27T03:37:40.986Z,3.50
2022-09-27T03:40:08.694Z,3.87
2022-09-27T03:42:35.167Z,3.37
2022-09-27T03:45:01.972Z,3.43
2022-09-27T03:47:28.598Z,3.50
2022-09-27T03:49:55.043Z,3.40
2022-09-27T03:52:21.497Z,3.13
2022-09-27T03:54:48.134Z,2.93
2022-09-27T03:57:14.740Z,3.47
2022-09-27T03:59:41.200Z,2.90
2022-09-27T04:02:07.709Z,3.60
2022-09-27T04:04:34.252Z,3.47
2022-09-27T04:07:00.736Z,3.17
2022-09-27T04:09:27.160Z,3.30
2022-09-27T04:11:53.612Z,3.60
2022-09-27T04:14:20.059Z,3.73
2022-09-27T04:16:46.575Z,4.10
2022-09-27T04:19:13.143Z,4.20
2022-09-27T04:21:39.688Z,4.27
2022-09-27T04:24:06.626Z,4.73
2022-09-27T04:26:33.127Z,5.30
2022-09-27T04:28:59.824Z,6.20
2022-09-27T04:31:26.362Z,4.93
2022-09-27T04:33:54.634Z,5.30
2022-09-27T04:36:29.272Z,5.00
2022-09-27T04:38:57.817Z,5.93
2022-09-27T04:41:25.538Z,6.10
2022-09-27T04:43:56.743Z,8.90
2022-09-27T04:46:25.385Z,5.90
2022-09-27T04:48:51.880Z,5.40
2022-09-27T04:51:18.584Z,5.73
2022-09-27T04:53:45.544Z,6.50
2022-09-27T04:56:13.521Z,5.87
2022-09-27T04:58:40.247Z,5.60
2022-09-27T05:01:07.283Z,4.30
2022-09-27T05:03:33.868Z,3.70
2022-09-27T05:06:00.702Z,3.57
2022-09-27T05:08:27.926Z,4.23
2022-09-27T05:10:55.078Z,3.70
2022-09-27T05:13:22.243Z,3.90
2022-09-27T05:15:48.905Z,3.17
2022-09-27T05:18:15.533Z,3.37
2022-09-27T05:20:41.997Z,3.40
2022-09-27T05:23:08.461Z,3.53
2022-09-27T05:25:35.516Z,3.00
2022-09-27T05:28:02.278Z,3.20
2022-09-27T05:30:28.861Z,2.90
2022-09-27T05:32:55.597Z,2.90
2022-09-27T05:35:22.469Z,2.50
2022-09-27T05:38:07.112Z,2.73
2022-09-27T05:40:41.942Z,2.90
2022-09-27T05:43:09.195Z,2.80
2022-09-27T05:45:35.638Z,2.40
2022-09-27T05:48:02.650Z,2.17
2022-09-27T05:50:29.237Z,2.27
2022-09-27T05:52:55.817Z,2.33
2022-09-27T05:55:22.564Z,2.30
2022-09-27T05:58:08.722Z,2.20
2022-09-27T06:00:35.675Z,2.53
2022-09-27T06:03:04.745Z,2.10
2022-09-27T06:05:36.143Z,1.90
2022-09-27T06:08:05.366Z,2.47
2022-09-27T06:10:32.906Z,2.37
2022-09-27T06:13:07.629Z,3.20
2022-09-27T06:15:36.825Z,2.10
2022-09-27T06:18:10.379Z,2.50
2022-09-27T06:20:40.131Z,2.60
2022-09-27T06:23:09.930Z,2.30
2022-09-27T06:25:36.852Z,2.10
2022-09-27T06:28:04.292Z,2.00
2022-09-27T06:30:31.791Z,1.67
2022-09-27T06:33:00.498Z,2.77
2022-09-27T06:35:28.740Z,1.97
2022-09-27T06:37:56.106Z,1.50
2022-09-27T06:40:27.303Z,1.67
2022-09-27T06:42:54.155Z,2.20
2022-09-27T06:45:20.711Z,2.20
2022-09-27T06:47:47.229Z,1.93
2022-09-27T06:50:14.421Z,1.73
2022-09-27T06:52:48.417Z,2.07
2022-09-27T06:55:15.656Z,1.80
2022-09-27T06:58:01.851Z,2.20
2022-09-27T07:00:28.829Z,2.17
2022-09-27T07:03:01.042Z,2.13
2022-09-27T07:05:31.346Z,2.10
2022-09-27T07:07:58.768Z,2.17
2022-09-27T07:10:27.817Z,2.00
2022-09-27T07:12:54.991Z,1.83
2022-09-27T07:15:23.263Z,3.80
2022-09-27T07:17:58.262Z,2.83
2022-09-27T07:20:27.205Z,2.57
2022-09-27T07:22:53.696Z,2.10
2022-09-27T07:25:20.253Z,2.50
2022-09-27T07:27:46.758Z,2.33
2022-09-27T07:30:13.913Z,3.00
2022-09-27T07:32:40.869Z,2.30
2022-09-27T07:35:08.539Z,2.60
2022-09-27T07:37:37.270Z,2.13
2022-09-27T07:40:09.492Z,2.00
2022-09-27T07:42:41.593Z,2.03
2022-09-27T07:45:09.520Z,2.13
2022-09-27T07:47:37.926Z,1.50
2022-09-27T07:50:10.513Z,1.93
2022-09-27T07:52:42.092Z,1.50
2022-09-27T07:55:10.783Z,1.70
2022-09-27T07:57:38.376Z,1.80
2022-09-27T08:00:08.118Z,1.97
2022-09-27T08:02:34.673Z,1.63
2022-09-27T08:05:01.404Z,1.60
2022-09-27T08:07:28.843Z,1.80
2022-09-27T08:09:56.186Z,2.27
2022-09-27T08:12:22.852Z,3.30
2022-09-27T08:14:49.584Z,2.07
2022-09-27T08:17:17.481Z,1.67
2022-09-27T08:19:45.261Z,2.13
2022-09-27T08:22:15.365Z,1.63
2022-09-27T08:24:42.743Z,5.50
2022-09-27T08:27:12.006Z,2.30
2022-09-27T08:29:42.057Z,1.53
2022-09-27T08:32:22.155Z,1.57
2022-09-27T08:34:49.823Z,2.07
2022-09-27T08:37:16.537Z,2.13
2022-09-27T08:39:47.592Z,2.13
2022-09-27T08:42:24.001Z,1.80
2022-09-27T08:45:03.943Z,1.70
2022-09-27T08:47:33.386Z,1.87
2022-09-27T08:50:10.213Z,2.00
2022-09-27T08:52:45.600Z,1.60
2022-09-27T08:55:22.150Z,1.90
2022-09-27T08:57:55.046Z,1.50
2022-09-27T09:00:21.813Z,1.70
2022-09-27T09:02:48.590Z,1.80
2022-09-27T09:05:22.336Z,2.17
2022-09-27T09:08:01.719Z,2.10
2022-09-27T09:10:49.961Z,1.67
2022-09-27T09:13:46.614Z,1.80
2022-09-27T09:16:43.384Z,2.00
2022-09-27T09:19:22.011Z,1.93
2022-09-27T09:21:53.052Z,2.20
2022-09-27T09:24:57.998Z,2.10
2022-09-27T09:27:33.742Z,2.30
2022-09-27T09:30:05.443Z,2.50
2022-09-27T09:32:44.641Z,2.00
2022-09-27T09:35:20.292Z,2.83
2022-09-27T09:37:53.714Z,2.37
2022-09-27T09:40:28.898Z,3.20
2022-09-27T09:43:10.052Z,2.70
2022-09-27T09:45:41.827Z,3.00
2022-09-27T09:48:28.418Z,2.87
2022-09-27T09:50:58.503Z,3.50
2022-09-27T09:53:41.708Z,2.60
2022-09-27T09:56:28.192Z,2.80
2022-09-27T09:59:05.288Z,3.40
2022-09-27T10:01:44.282Z,3.10
2022-09-27T10:04:21.986Z,3.60
2022-09-27T10:06:49.762Z,3.10
2022-09-27T10:09:17.784Z,3.00
2022-09-27T10:11:46.267Z,3.13
2022-09-27T10:14:18.796Z,2.57
2022-09-27T10:16:54.653Z,2.63
2022-09-27T10:19:29.654Z,2.80
2022-09-27T10:22:02.440Z,2.87
2022-09-27T10:24:29.260Z,3.10
2022-09-27T10:27:01.152Z,2.30
2022-09-27T10:29:38.153Z,2.70
2022-09-27T10:32:19.085Z,2.50
2022-09-27T10:34:45.539Z,2.23
2022-09-27T10:37:11.948Z,2.20
2022-09-27T10:39:41.294Z,1.90
2022-09-27T10:42:22.306Z,2.00
2022-09-27T10:44:49.346Z,2.00
2022-09-27T10:47:23.884Z,1.77
2022-09-27T10:49:53.698Z,2.07
2022-09-27T10:52:22.787Z,2.77
2022-09-27T10:54:57.821Z,2.03
2022-09-27T10:57:30.270Z,4.33
2022-09-27T10:59:59.923Z,7.23
2022-09-27T11:02:35.695Z,2.73
2022-09-27T11:05:11.215Z,2.50
2022-09-27T11:07:55.033Z,2.97
2022-09-27T11:10:23.459Z,2.87
2022-09-27T11:13:12.777Z,3.13
2022-09-27T11:15:47.778Z,3.00
2022-09-27T11:18:43.432Z,3.33
2022-09-27T11:21:27.169Z,3.13
2022-09-27T11:24:10.790Z,3.30
2022-09-27T11:26:53.011Z,3.20
2022-09-27T11:29:47.966Z,3.53
2022-09-27T11:32:59.122Z,4.10
2022-09-27T11:35:38.166Z,3.53
2022-09-27T11:38:21.149Z,3.60
2022-09-27T11:41:03.382Z,3.20
2022-09-27T11:43:29.849Z,3.50
2022-09-27T11:46:25.403Z,2.70
2022-09-27T11:49:20.344Z,3.57
2022-09-27T11:51:55.845Z,3.20
2022-09-27T11:54:42.023Z,3.27
2022-09-27T11:57:08.376Z,3.30
2022-09-27T11:59:58.771Z,3.37
2022-09-27T12:03:03.841Z,3.77
2022-09-27T12:05:57.347Z,5.70
2022-09-27T12:08:58.492Z,3.33
2022-09-27T12:11:37.412Z,3.30
2022-09-27T12:14:11.602Z,4.03
2022-09-27T12:16:41.840Z,3.03
2022-09-27T12:19:18.184Z,3.20
2022-09-27T12:21:45.313Z,3.43
2022-09-27T12:24:23.450Z,3.10
2022-09-27T12:26:54.828Z,3.83
2022-09-27T12:29:33.858Z,3.47
2022-09-27T12:32:44.862Z,3.73
2022-09-27T12:35:28.762Z,3.80
2022-09-27T12:38:11.580Z,3.20
2022-09-27T12:40:45.955Z,3.17
2022-09-27T12:43:19.079Z,3.33
2022-09-27T12:46:06.383Z,3.67
2022-09-27T12:49:11.756Z,3.47
2022-09-27T12:51:47.964Z,4.57
2022-09-27T12:54:26.482Z,3.70
2022-09-27T12:57:27.044Z,2.90
2022-09-27T13:00:23.991Z,3.50
2022-09-27T13:03:25.075Z,2.80
2022-09-27T13:06:07.905Z,2.70
2022-09-27T13:08:53.885Z,2.10
2022-09-27T13:11:35.280Z,2.13
2022-09-27T13:14:04.336Z,2.00
2022-09-27T13:16:31.460Z,2.07
2022-09-27T13:19:02.828Z,2.00
2022-09-27T13:21:47.568Z,2.07
2022-09-27T13:24:42.757Z,2.37
2022-09-27T13:27:27.446Z,2.30
2022-09-27T13:30:12.467Z,2.70
2022-09-27T13:32:40.811Z,3.00
2022-09-27T13:35:23.097Z,2.57
2022-09-27T13:37:59.313Z,2.80
2022-09-27T13:40:28.595Z,2.37
2022-09-27T13:43:18.035Z,1.77
2022-09-27T13:46:07.758Z,2.13
2022-09-27T13:48:37.338Z,1.80
2022-09-27T13:51:42.103Z,2.10
2022-09-27T13:54:42.049Z,1.87
2022-09-27T13:57:37.384Z,1.93
2022-09-27T14:00:06.762Z,1.80
2022-09-27T14:02:43.779Z,1.63
2022-09-27T14:05:18.159Z,1.70
2022-09-27T14:07:46.849Z,1.70
2022-09-27T14:10:18.303Z,2.00
2022-09-27T14:12:45.521Z,1.70
2022-09-27T14:15:25.224Z,2.00
2022-09-27T14:17:53.319Z,1.63
2022-09-27T14:20:42.960Z,1.60
2022-09-27T14:23:18.177Z,1.87
2022-09-27T14:25:47.823Z,1.47
2022-09-27T14:28:28.079Z,2.30
2022-09-27T14:31:18.385Z,2.10
2022-09-27T14:33:48.839Z,2.07
2022-09-27T14:36:51.282Z,1.87
2022-09-27T14:39:24.351Z,1.60
2022-09-27T14:41:51.357Z,1.77
2022-09-27T14:44:23.569Z,1.70
2022-09-27T14:47:18.405Z,1.87
2022-09-27T14:49:49.936Z,5.37
2022-09-27T14:52:21.360Z,2.00
2022-09-27T14:55:19.035Z,2.70
2022-09-27T14:57:58.265Z,2.60
2022-09-27T15:00:28.872Z,2.30
2022-09-27T15:02:56.582Z,2.00
2022-09-27T15:05:26.219Z,1.90
2022-09-27T15:07:55.739Z,1.70
2022-09-27T15:10:26.413Z,1.50
2022-09-27T15:12:57.830Z,1.50
2022-09-27T15:15:31.210Z,1.63
2022-09-27T15:17:59.177Z,1.30
2022-09-27T15:20:34.626Z,3.57
2022-09-27T15:23:04.285Z,1.87
2022-09-27T15:25:34.455Z,1.87
2022-09-27T15:28:11.614Z,2.10
2022-09-27T15:30:40.637Z,1.90
2022-09-27T15:33:22.689Z,1.70
2022-09-27T15:35:55.494Z,1.90
2022-09-27T15:38:30.961Z,1.90
2022-09-27T15:40:59.875Z,1.80
2022-09-27T15:43:40.085Z,2.10
2022-09-27T15:46:26.999Z,1.93
2022-09-27T15:49:22.746Z,1.90
2022-09-27T15:51:54.571Z,2.20
2022-09-27T15:54:27.394Z,2.07
2022-09-27T15:56:56.172Z,2.13
2022-09-27T15:59:30.635Z,2.00
2022-09-27T16:01:59.046Z,2.53
2022-09-27T16:04:26.463Z,2.90
2022-09-27T16:06:55.831Z,2.20
2022-09-27T16:09:22.711Z,2.30
2022-09-27T16:11:50.464Z,3.60
2022-09-27T16:14:18.497Z,2.50
2022-09-27T16:16:58.784Z,2.40
2022-09-27T16:19:25.512Z,3.03
2022-09-27T16:21:52.035Z,2.77
2022-09-27T16:24:18.564Z,2.40
2022-09-27T16:26:45.022Z,2.60
2022-09-27T16:29:15.930Z,2.40
2022-09-27T16:31:42.985Z,2.30
2022-09-27T16:34:10.272Z,2.73
2022-09-27T16:36:37.470Z,2.40
2022-09-27T16:39:07.185Z,2.30
2022-09-27T16:41:34.049Z,2.10
2022-09-27T16:44:09.329Z,2.50
2022-09-27T16:46:35.841Z,2.30
2022-09-27T16:49:02.442Z,2.10
2022-09-27T16:51:47.663Z,2.37
2022-09-27T16:54:15.829Z,2.47
2022-09-27T16:56:42.608Z,1.93
2022-09-27T16:59:09.125Z,2.53
2022-09-27T17:01:35.729Z,2.00
2022-09-27T17:04:02.279Z,2.27
2022-09-27T17:06:28.932Z,2.20
2022-09-27T17:08:56.015Z,1.80
2022-09-27T17:11:23.163Z,2.17
2022-09-27T17:13:54.042Z,2.13
2022-09-27T17:16:20.537Z,1.90
2022-09-27T17:18:47.043Z,2.10
2022-09-27T17:21:13.583Z,1.90
2022-09-27T17:23:40.108Z,2.30
2022-09-27T17:26:09.475Z,2.20
2022-09-27T17:28:36.734Z,2.00
2022-09-27T17:31:09.789Z,2.43
2022-09-27T17:33:41.529Z,2.00
2022-09-27T17:36:08.652Z,2.10
2022-09-27T17:38:35.515Z,2.50
2022-09-27T17:41:10.373Z,2.60
2022-09-27T17:43:39.339Z,3.20
2022-09-27T17:46:10.371Z,3.03
2022-09-27T17:48:55.297Z,4.47
2022-09-27T17:51:22.721Z,4.20
2022-09-27T17:53:49.565Z,2.77
2022-09-27T17:56:16.697Z,3.00
2022-09-27T17:58:59.865Z,3.00
2022-09-27T18:01:26.586Z,3.00
2022-09-27T18:03:55.430Z,3.10
2022-09-27T18:06:23.709Z,2.57
2022-09-27T18:08:51.230Z,2.60
2022-09-27T18:11:25.250Z,2.87
2022-09-27T18:13:51.725Z,2.80
2022-09-27T18:16:19.923Z,2.50
2022-09-27T18:18:48.794Z,3.53
2022-09-27T18:21:21.765Z,3.70
2022-09-27T18:23:51.926Z,4.93
2022-09-27T18:26:19.115Z,3.30
2022-09-27T18:28:45.611Z,3.70
2022-09-27T18:31:14.855Z,3.60
2022-09-27T18:33:41.510Z,3.10
2022-09-27T18:36:14.891Z,3.00
2022-09-27T18:38:41.538Z,3.47
2022-09-27T18:41:16.444Z,2.80
2022-09-27T18:43:44.821Z,3.00
2022-09-27T18:46:34.483Z,3.00
2022-09-27T18:49:06.167Z,3.10
2022-09-27T18:51:33.366Z,3.13
2022-09-27T18:54:02.046Z,3.20
2022-09-27T18:56:29.412Z,3.77
2022-09-27T18:58:56.550Z,3.50
2022-09-27T19:01:25.349Z,4.23
2022-09-27T19:03:52.978Z,4.40
2022-09-27T19:06:21.741Z,4.00
2022-09-27T19:08:58.794Z,3.50
2022-09-27T19:11:26.898Z,3.90
2022-09-27T19:13:56.258Z,3.80
2022-09-27T19:16:26.967Z,4.10
2022-09-27T19:18:53.996Z,3.80
2022-09-27T19:21:25.684Z,4.23
2022-09-27T19:23:52.732Z,4.10
2022-09-27T19:26:22.528Z,4.53
2022-09-27T19:28:50.425Z,3.77
2022-09-27T19:31:22.707Z,3.97
2022-09-27T19:33:49.904Z,4.43
2022-09-27T19:36:18.501Z,4.37
2022-09-27T19:38:45.521Z,4.33
2022-09-27T19:41:14.396Z,4.30
2022-09-27T19:43:41.958Z,3.67
2022-09-27T19:46:12.240Z,4.30
2022-09-27T19:48:38.766Z,4.03
2022-09-27T19:51:06.739Z,4.40
2022-09-27T19:53:34.469Z,4.37
2022-09-27T19:56:06.335Z,4.30
2022-09-27T19:58:34.634Z,4.63
2022-09-27T20:01:20.132Z,4.80
2022-09-27T20:03:47.815Z,5.00
2022-09-27T20:06:16.851Z,4.83
2022-09-27T20:08:44.043Z,5.00
2022-09-27T20:11:13.586Z,5.17
2022-09-27T20:13:41.041Z,7.10
2022-09-27T20:16:16.289Z,5.57
2022-09-27T20:18:53.863Z,6.50
2022-09-27T20:21:21.705Z,7.60
2022-09-27T20:23:52.543Z,6.50
2022-09-27T20:26:20.600Z,5.83
2022-09-27T20:28:49.927Z,6.50
2022-09-27T20:31:18.974Z,6.53
2022-09-27T20:33:46.834Z,5.57
2022-09-27T20:36:14.873Z,5.87
2022-09-27T20:38:43.032Z,7.10
2022-09-27T20:41:10.682Z,6.10
2022-09-27T20:43:38.241Z,6.63
2022-09-27T20:46:07.546Z,6.70
2022-09-27T20:48:38.155Z,6.67
2022-09-27T20:51:05.229Z,6.23
2022-09-27T20:53:32.434Z,7.50
2022-09-27T20:56:02.700Z,7.17
2022-09-27T20:58:30.294Z,6.80
2022-09-27T21:00:57.011Z,6.77
2022-09-27T21:03:23.485Z,8.27
2022-09-27T21:05:55.499Z,8.30
2022-09-27T21:08:22.479Z,6.03
2022-09-27T21:10:52.691Z,6.00
2022-09-27T21:13:19.952Z,5.63
2022-09-27T21:15:47.302Z,4.60
2022-09-27T21:18:13.945Z,4.90
2022-09-27T21:20:40.439Z,4.10
2022-09-27T21:23:06.851Z,3.93
2022-09-27T21:25:33.377Z,4.33
2022-09-27T21:27:59.845Z,4.20
2022-09-27T21:30:26.521Z,4.80
2022-09-27T21:32:57.307Z,4.30
2022-09-27T21:35:23.785Z,4.23
2022-09-27T21:37:50.299Z,3.73
2022-09-27T21:40:16.966Z,4.20
2022-09-27T21:42:43.490Z,3.80
2022-09-27T21:45:10.445Z,3.60
2022-09-27T21:47:36.887Z,3.63
2022-09-27T21:50:03.556Z,4.27
2022-09-27T21:52:29.922Z,3.97
2022-09-27T21:54:56.397Z,4.40
2022-09-27T21:57:22.850Z,3.93
2022-09-27T21:59:49.269Z,3.80
2022-09-27T22:02:19.222Z,4.40
2022-09-27T22:04:45.847Z,3.77
2022-09-27T22:07:12.260Z,4.03
2022-09-27T22:09:38.828Z,4.33
2022-09-27T22:12:06.193Z,4.00
2022-09-27T22:14:34.407Z,5.23
2022-09-27T22:17:00.792Z,5.67
2022-09-27T22:19:27.220Z,6.30
2022-09-27T22:21:53.630Z,6.33
2022-09-27T22:24:20.218Z,5.47
2022-09-27T22:26:49.666Z,5.07
2022-09-27T22:29:16.451Z,5.27
2022-09-27T22:31:43.238Z,4.63
2022-09-27T22:34:17.072Z,4.43
2022-09-27T22:36:43.896Z,3.90
2022-09-27T22:39:10.502Z,3.40
2022-09-27T22:41:37.552Z,2.90
2022-09-27T22:44:04.088Z,2.73
2022-09-27T22:46:30.969Z,2.67
2022-09-27T22:48:57.406Z,2.60
2022-09-27T22:51:23.812Z,2.50
2022-09-27T22:53:50.247Z,2.83
2022-09-27T22:56:19.629Z,2.47
2022-09-27T22:58:47.546Z,3.00
2022-09-27T23:01:16.478Z,2.67
2022-09-27T23:03:43.493Z,3.00
2022-09-27T23:06:10.267Z,2.57
2022-09-27T23:08:37.787Z,2.57
2022-09-27T23:11:09.839Z,3.00
2022-09-27T23:13:38.915Z,2.40
2022-09-27T23:16:08.915Z,2.60
2022-09-27T23:18:37.196Z,2.30
2022-09-27T23:21:08.215Z,2.80
2022-09-27T23:23:36.256Z,2.90
2022-09-27T23:26:05.702Z,2.40
2022-09-27T23:28:33.065Z,2.60
2022-09-27T23:31:13.965Z,2.93
2022-09-27T23:33:46.281Z,2.33
2022-09-27T23:36:15.522Z,2.50
2022-09-27T23:38:43.415Z,2.57
2022-09-27T23:41:09.880Z,2.40
2022-09-27T23:43:36.379Z,2.20
2022-09-27T23:46:04.358Z,2.40
2022-09-27T23:48:30.738Z,2.37
2022-09-27T23:50:57.232Z,2.97
2022-09-27T23:53:24.383Z,2.50
2022-09-27T23:56:02.496Z,2.37
2022-09-27T23:58:32.655Z,2.60
